createdAt,value
2023-02-06T00:02:54.708Z,3.99544
2023-02-06T00:07:56.435Z,3.69883
2023-02-06T00:12:58.042Z,3.82109
2023-02-06T00:17:59.755Z,3.3333
2023-02-06T00:23:01.411Z,3.73027
2023-02-06T00:28:03.020Z,3.46604
2023-02-06T00:33:04.770Z,3.2755
2023-02-06T00:38:06.380Z,3.36823
2023-02-06T00:43:08.013Z,3.05447
2023-02-06T00:48:09.762Z,2.74515
2023-02-06T00:53:11.461Z,2.76167
2023-02-06T00:58:13.096Z,1.81372
2023-02-06T01:03:14.762Z,2.4568
2023-02-06T01:08:16.440Z,2.48125
2023-02-06T01:13:18.080Z,2.38979
2023-02-06T01:18:19.760Z,2.39265
2023-02-06T01:23:21.426Z,2.28118
2023-02-06T01:28:23.054Z,2.4533
2023-02-06T01:33:24.732Z,2.37931
2023-02-06T01:38:26.360Z,2.15733
2023-02-06T01:43:28.042Z,1.65081
2023-02-06T01:48:29.807Z,1.81213
2023-02-06T01:53:31.426Z,1.74449
2023-02-06T01:58:33.121Z,2.31071
2023-02-06T02:03:34.845Z,2.4063
2023-02-06T02:08:36.488Z,2.61685
2023-02-06T02:13:38.295Z,1.04362
2023-02-06T02:18:40.087Z,1.38564
2023-02-06T02:23:41.686Z,2.03665
2023-02-06T02:28:43.451Z,2.06777
2023-02-06T02:33:45.134Z,2.44409
2023-02-06T02:38:46.767Z,1.59999
2023-02-06T02:43:48.402Z,2.24879
2023-02-06T02:48:50.267Z,2.31865
2023-02-06T02:53:52.923Z,2.21132
2023-02-06T02:58:54.816Z,1.4555
2023-02-06T03:03:56.580Z,1.40533
2023-02-06T03:08:58.227Z,2.22211
2023-02-06T03:13:59.832Z,2.21132
2023-02-06T03:19:01.951Z,0.95121
2023-02-06T03:24:03.612Z,1.70066
2023-02-06T03:29:05.656Z,1.58824
2023-02-06T03:34:08.009Z,1.57237
2023-02-06T03:39:09.678Z,1.98584
2023-02-06T03:44:11.299Z,2.12938
2023-02-06T03:49:12.989Z,1.36055
2023-02-06T03:54:14.623Z,1.7032
2023-02-06T03:59:16.888Z,1.80197
2023-02-06T04:04:18.849Z,2.12938
2023-02-06T04:09:20.474Z,0.75114
2023-02-06T04:14:22.085Z,1.39739
2023-02-06T04:19:23.820Z,1.99442
2023-02-06T04:24:25.460Z,1.45899
2023-02-06T04:29:27.117Z,1.74862
2023-02-06T04:34:28.704Z,2.15098
2023-02-06T04:39:30.376Z,1.34562
2023-02-06T04:44:32.387Z,1.53712
2023-02-06T04:49:33.960Z,1.68669
2023-02-06T04:54:35.561Z,0.4558
2023-02-06T04:59:37.166Z,1.24527
2023-02-06T05:04:38.778Z,1.17287
2023-02-06T05:09:40.458Z,1.12237
2023-02-06T05:14:42.130Z,0.46755
2023-02-06T05:19:43.810Z,0.73113
2023-02-06T05:24:45.419Z,0.96137
2023-02-06T05:29:47.003Z,0.45835
2023-02-06T05:34:48.597Z,0.31544
2023-02-06T05:39:50.181Z,0.65619
2023-02-06T05:44:51.745Z,0.92421
2023-02-06T05:49:53.337Z,-0.49752
2023-02-06T05:54:54.978Z,0.86959
2023-02-06T05:59:56.676Z,0.44024
2023-02-06T06:04:58.312Z,0.13697
2023-02-06T06:09:59.981Z,0.65682
2023-02-06T06:15:01.614Z,0.40182
2023-02-06T06:20:03.206Z,0.68223
2023-02-06T06:25:04.810Z,0.54885
2023-02-06T06:30:06.482Z,0.21731
2023-02-06T06:35:08.145Z,1.0071
2023-02-06T06:40:09.788Z,0.07632
2023-02-06T06:45:11.440Z,0.36847
2023-02-06T06:50:13.071Z,0.21477
2023-02-06T06:55:14.789Z,0.17952
2023-02-06T07:00:16.684Z,0.63364
2023-02-06T07:05:18.568Z,0.89119
2023-02-06T07:10:20.223Z,0.78385
2023-02-06T07:15:21.859Z,-0.17805
2023-02-06T07:20:23.562Z,0.727
2023-02-06T07:25:25.168Z,1.07887
2023-02-06T07:30:26.814Z,0.95597
2023-02-06T07:35:28.455Z,0.26527
2023-02-06T07:40:43.976Z,0.71398
2023-02-06T07:45:46.353Z,0.65905
2023-02-06T07:50:47.963Z,0.92135
2023-02-06T07:55:49.695Z,0.34148
2023-02-06T08:00:51.383Z,0.73717
2023-02-06T08:05:53.015Z,0.41833
2023-02-06T08:10:54.582Z,0.19826
2023-02-06T08:15:56.171Z,0.82577
2023-02-06T08:20:57.786Z,0.43866
2023-02-06T08:25:59.373Z,0.93088
2023-02-06T08:31:01.070Z,0.91596
2023-02-06T08:36:02.725Z,0.358
2023-02-06T08:41:04.316Z,0.26717
2023-02-06T08:46:06.027Z,0.64857
2023-02-06T08:51:07.605Z,0.27892
2023-02-06T08:56:09.232Z,0.74257
2023-02-06T09:01:10.874Z,0.61522
2023-02-06T09:06:12.495Z,0.32306
2023-02-06T09:11:14.160Z,0.88229
2023-02-06T09:16:15.833Z,0.66635
2023-02-06T09:21:17.537Z,0.32179
2023-02-06T09:26:19.413Z,0.82799
2023-02-06T09:31:21.072Z,0.08362
2023-02-06T09:36:22.683Z,-0.22918
2023-02-06T09:41:24.280Z,0.41198
2023-02-06T09:46:26.795Z,0.92517
2023-02-06T09:51:28.481Z,-0.40828
2023-02-06T09:56:30.229Z,0.29734
2023-02-06T10:01:31.852Z,-0.28983
2023-02-06T10:06:33.780Z,0.44628
2023-02-06T10:11:35.387Z,-0.30793
2023-02-06T10:16:37.007Z,0.3345
2023-02-06T10:21:38.616Z,-0.22791
2023-02-06T10:26:40.250Z,-0.52514
2023-02-06T10:31:41.943Z,0.51646
2023-02-06T10:36:45.983Z,-0.19234
2023-02-06T10:41:47.803Z,0.03281
2023-02-06T10:46:49.437Z,0.67715
2023-02-06T10:51:51.026Z,1.03346
2023-02-06T10:56:52.899Z,0.24145
2023-02-06T11:01:54.680Z,0.37546
2023-02-06T11:06:56.347Z,0.90135
2023-02-06T11:11:57.952Z,0.38562
2023-02-06T11:16:59.576Z,0.80259
2023-02-06T11:22:01.251Z,-0.33937
2023-02-06T11:27:02.825Z,0.43485
2023-02-06T11:32:04.484Z,0.90865
2023-02-06T11:37:06.220Z,1.18493
2023-02-06T11:42:07.849Z,0.85721
2023-02-06T11:47:09.438Z,0.67746
2023-02-06T11:52:11.179Z,0.46438
2023-02-06T11:57:12.774Z,-0.06754
2023-02-06T12:02:14.410Z,0.67365
2023-02-06T12:07:16.031Z,0.45326
2023-02-06T12:12:17.854Z,0.66889
2023-02-06T12:17:19.426Z,0.88642
2023-02-06T12:22:21.132Z,0.56695
2023-02-06T12:27:22.724Z,0.8915
2023-02-06T12:32:24.285Z,0.80195
2023-02-06T12:37:26.062Z,0.86229
2023-02-06T12:42:27.682Z,0.74701
2023-02-06T12:47:29.408Z,1.02075
2023-02-06T12:52:31.206Z,0.64349
2023-02-06T12:57:32.786Z,0.58283
2023-02-06T13:02:34.589Z,0.64222
2023-02-06T13:07:44.767Z,0.67937
2023-02-06T13:12:50.852Z,0.88515
2023-02-06T13:17:52.570Z,1.02044
2023-02-06T13:22:54.254Z,1.14841
2023-02-06T13:27:55.987Z,0.71748
2023-02-06T13:32:57.751Z,0.10839
2023-02-06T13:37:59.342Z,-0.50831
2023-02-06T13:43:01.083Z,0.2405
2023-02-06T13:48:02.730Z,0.50916
2023-02-06T13:53:04.304Z,0.36911
2023-02-06T13:58:05.892Z,-0.14407
2023-02-06T14:03:07.599Z,-0.10025
2023-02-06T14:08:09.426Z,0.56695
2023-02-06T14:13:11.106Z,0.74701
2023-02-06T14:18:12.723Z,0.61617
2023-02-06T14:23:14.382Z,0.17063
2023-02-06T14:28:16.128Z,-0.12406
2023-02-06T14:33:18.132Z,0.25638
2023-02-06T14:38:19.723Z,0.029
2023-02-06T14:43:21.349Z,0.40912
2023-02-06T14:48:23.201Z,0.00836
2023-02-06T14:53:24.852Z,0.41738
2023-02-06T14:58:26.534Z,-0.35017
2023-02-06T15:03:28.215Z,0.47803
2023-02-06T15:08:31.540Z,0.27384
2023-02-06T15:13:34.296Z,0.05218
2023-02-06T15:18:35.876Z,0.61872
2023-02-06T15:23:37.586Z,0.18651
2023-02-06T15:28:39.195Z,0.46755
2023-02-06T15:33:40.900Z,0.15825
2023-02-06T15:38:42.681Z,0.67588
2023-02-06T15:43:44.278Z,0.51773
2023-02-06T15:48:45.903Z,0.12459
2023-02-06T15:53:48.677Z,0.28273
2023-02-06T15:58:50.511Z,0.23383
2023-02-06T16:03:52.313Z,0.29702
2023-02-06T16:08:54.219Z,0.66571
2023-02-06T16:13:55.886Z,0.79496
2023-02-06T16:18:57.539Z,1.00614
2023-02-06T16:23:59.220Z,0.37895
2023-02-06T16:29:00.847Z,0.75971
2023-02-06T16:34:02.587Z,0.89976
2023-02-06T16:39:04.912Z,0.41674
2023-02-06T16:44:06.638Z,0.82418
2023-02-06T16:49:08.229Z,0.8029
2023-02-06T16:54:09.879Z,0.32021
2023-02-06T16:59:12.372Z,0.31957
2023-02-06T17:04:14.183Z,0.37927
2023-02-06T17:09:15.933Z,1.13158
2023-02-06T17:14:17.646Z,1.22971
2023-02-06T17:19:19.502Z,1.47487
2023-02-06T17:24:21.142Z,1.39485
2023-02-06T17:29:24.053Z,1.46344
2023-02-06T17:34:26.093Z,1.56729
2023-02-06T17:39:27.698Z,1.70987
2023-02-06T17:44:29.308Z,1.75338
2023-02-06T17:49:31.077Z,1.36754
2023-02-06T17:54:32.764Z,2.0411
2023-02-06T17:59:34.465Z,1.91185
2023-02-06T18:04:36.081Z,2.21544
2023-02-06T18:09:37.889Z,2.33866
2023-02-06T18:14:39.544Z,2.33263
2023-02-06T18:19:41.173Z,2.45362
2023-02-06T18:24:42.891Z,2.51269
2023-02-06T18:29:49.696Z,1.88549
2023-02-06T18:34:52.069Z,1.18589
2023-02-06T18:39:53.662Z,1.42311
2023-02-06T18:44:55.418Z,0.81878
2023-02-06T18:49:57.091Z,0.99757
2023-02-06T18:54:58.699Z,1.2783
2023-02-06T19:00:00.377Z,1.94329
2023-02-06T19:05:02.088Z,0.98646
2023-02-06T19:10:03.682Z,1.39485
2023-02-06T19:15:05.357Z,1.8531
2023-02-06T19:20:07.000Z,2.23418
2023-02-06T19:25:10.299Z,2.19861
2023-02-06T19:30:12.634Z,3.49431
2023-02-06T19:35:14.263Z,3.10687
2023-02-06T19:40:15.910Z,2.822
2023-02-06T19:45:17.520Z,2.54826
2023-02-06T19:50:19.249Z,2.63781
2023-02-06T19:55:20.952Z,3.23453
2023-02-06T20:00:22.771Z,3.09448
2023-02-06T20:05:24.466Z,3.15069
2023-02-06T20:10:26.845Z,3.03954
2023-02-06T20:15:29.060Z,2.58478
2023-02-06T20:20:30.747Z,2.33549
2023-02-06T20:25:32.944Z,3.24533
2023-02-06T20:30:34.682Z,2.87091
2023-02-06T20:35:36.433Z,2.94427
2023-02-06T20:40:38.331Z,2.99095
2023-02-06T20:45:40.162Z,2.20115
2023-02-06T20:50:41.934Z,2.22751
2023-02-06T20:55:43.632Z,2.17194
2023-02-06T21:00:45.579Z,2.52666
2023-02-06T21:05:47.191Z,2.18591
2023-02-06T21:10:48.758Z,2.31834
2023-02-06T21:15:50.391Z,2.2345
2023-02-06T21:20:52.055Z,2.10493
2023-02-06T21:25:53.910Z,2.27197
2023-02-06T21:30:55.693Z,2.47776
2023-02-06T21:35:57.507Z,2.31135
2023-02-06T21:40:59.264Z,2.81629
2023-02-06T21:46:00.938Z,2.54985
2023-02-06T21:51:02.598Z,2.51015
2023-02-06T21:56:04.298Z,2.37518
2023-02-06T22:01:08.521Z,2.17575
2023-02-06T22:06:10.696Z,2.30087
2023-02-06T22:11:12.329Z,2.52063
2023-02-06T22:16:14.071Z,2.36089
2023-02-06T22:21:15.868Z,2.19067
2023-02-06T22:26:17.509Z,1.9995
2023-02-06T22:31:19.202Z,2.37867
2023-02-06T22:36:21.093Z,2.08651
2023-02-06T22:41:22.757Z,2.69815
2023-02-06T22:46:24.636Z,2.76738
2023-02-06T22:51:26.323Z,2.32215
2023-02-06T22:56:28.006Z,1.97949
2023-02-06T23:01:29.617Z,1.97536
2023-02-06T23:06:31.313Z,1.70733
2023-02-06T23:11:33.044Z,1.96425
2023-02-06T23:16:34.717Z,1.81213
2023-02-06T23:21:36.364Z,1.60158
2023-02-06T23:26:37.976Z,1.73464
2023-02-06T23:31:39.719Z,2.31262
2023-02-06T23:36:41.363Z,2.04205
2023-02-06T23:41:42.970Z,1.89502
2023-02-06T23:46:44.624Z,1.97631
2023-02-06T23:51:46.464Z,1.93376
2023-02-06T23:56:48.129Z,1.94583
